createdAt,value
2023-02-26T00:00:21.504Z,100.00
2023-02-26T00:03:12.937Z,100.00
2023-02-26T00:05:46.393Z,100.00
2023-02-26T00:08:20.687Z,100.00
2023-02-26T00:10:55.236Z,100.00
2023-02-26T00:13:27.300Z,100.00
2023-02-26T00:16:04.375Z,100.00
2023-02-26T00:18:38.947Z,100.00
2023-02-26T00:21:18.505Z,100.00
2023-02-26T00:23:55.616Z,100.00
2023-02-26T00:26:30.121Z,100.00
2023-02-26T00:29:02.349Z,100.00
2023-02-26T00:31:35.423Z,100.00
2023-02-26T00:34:07.315Z,100.00
2023-02-26T00:36:49.019Z,100.00
2023-02-26T00:39:38.021Z,100.00
2023-02-26T00:42:10.648Z,100.00
2023-02-26T00:44:43.130Z,100.00
2023-02-26T00:47:34.887Z,100.00
2023-02-26T00:50:18.817Z,100.00
2023-02-26T00:53:03.622Z,100.00
2023-02-26T00:55:37.714Z,100.00
2023-02-26T00:58:09.769Z,100.00
2023-02-26T01:00:41.018Z,100.00
2023-02-26T01:03:14.025Z,100.00
2023-02-26T01:05:46.012Z,100.00
2023-02-26T01:08:26.296Z,100.00
2023-02-26T01:11:00.591Z,100.00
2023-02-26T01:13:33.013Z,100.00
2023-02-26T01:16:12.199Z,100.00
2023-02-26T01:18:50.210Z,100.00
2023-02-26T01:21:26.784Z,100.00
2023-02-26T01:23:59.401Z,100.00
2023-02-26T01:26:33.884Z,100.00
2023-02-26T01:29:05.757Z,99.70
2023-02-26T01:31:46.856Z,99.91
2023-02-26T01:34:30.256Z,99.04
2023-02-26T01:37:10.800Z,99.16
2023-02-26T01:39:48.591Z,99.14
2023-02-26T01:42:26.764Z,98.92
2023-02-26T01:45:04.708Z,98.72
2023-02-26T01:47:43.712Z,99.37
2023-02-26T01:50:19.285Z,97.77
2023-02-26T01:53:19.358Z,99.47
2023-02-26T01:55:55.920Z,98.17
2023-02-26T01:58:34.175Z,97.70
2023-02-26T02:01:06.782Z,98.27
2023-02-26T02:03:42.626Z,97.04
2023-02-26T02:06:20.785Z,97.84
2023-02-26T02:08:52.152Z,97.64
2023-02-26T02:11:24.898Z,96.60
2023-02-26T02:14:16.374Z,97.11
2023-02-26T02:16:58.436Z,96.91
2023-02-26T02:23:17.844Z,96.64
2023-02-26T02:26:10.214Z,96.78
2023-02-26T02:28:56.881Z,97.10
2023-02-26T02:31:36.634Z,96.71
2023-02-26T02:34:16.141Z,96.31
2023-02-26T02:36:55.238Z,96.27
2023-02-26T02:39:31.796Z,97.26
2023-02-26T02:42:09.558Z,96.08
2023-02-26T02:44:45.282Z,95.13
2023-02-26T02:47:22.917Z,95.78
2023-02-26T02:50:01.624Z,95.82
2023-02-26T02:52:42.499Z,95.99
2023-02-26T02:55:20.815Z,96.02
2023-02-26T02:57:57.110Z,94.84
2023-02-26T03:00:31.257Z,96.30
2023-02-26T03:03:12.810Z,94.59
2023-02-26T03:05:44.205Z,95.39
2023-02-26T03:08:25.469Z,95.10
2023-02-26T03:10:56.773Z,95.02
2023-02-26T03:13:29.563Z,95.62
2023-02-26T03:16:18.558Z,94.91
2023-02-26T03:19:01.101Z,94.56
2023-02-26T11:19:09.359Z,46.88
2023-02-26T11:21:44.913Z,46.72
2023-02-26T11:24:24.876Z,49.17
2023-02-26T11:27:03.202Z,47.99
2023-02-26T11:29:41.891Z,48.74
2023-02-26T11:32:21.782Z,48.14
2023-02-26T11:34:58.759Z,50.61
2023-02-26T11:37:33.641Z,50.81
2023-02-26T11:40:11.564Z,51.02
2023-02-26T11:42:51.960Z,52.97
2023-02-26T11:45:25.841Z,51.88
2023-02-26T11:48:07.554Z,53.12
2023-02-26T11:50:49.702Z,51.25
2023-02-26T11:53:27.393Z,49.87
2023-02-26T11:56:04.934Z,50.16
2023-02-26T11:58:40.567Z,47.30
2023-02-26T12:01:17.008Z,47.35
2023-02-26T12:03:53.497Z,47.34
2023-02-26T12:06:28.229Z,48.36
2023-02-26T12:09:00.879Z,48.04
2023-02-26T12:12:02.998Z,49.95
2023-02-26T12:15:08.589Z,49.81
2023-02-26T12:17:55.669Z,49.59
2023-02-26T12:20:32.905Z,49.63
2023-02-26T12:23:26.227Z,47.59
2023-02-26T12:26:12.569Z,47.87
2023-02-26T12:29:16.191Z,48.35
2023-02-26T12:32:30.088Z,48.98
2023-02-26T12:35:28.934Z,48.36
2023-02-26T12:38:19.353Z,51.07
2023-02-26T12:41:10.936Z,50.46
2023-02-26T12:43:50.898Z,52.20
2023-02-26T12:46:57.006Z,50.96
2023-02-26T12:49:51.319Z,51.70
2023-02-26T12:52:51.244Z,52.28
2023-02-26T12:55:39.916Z,52.32
2023-02-26T12:58:37.934Z,49.99
2023-02-26T13:01:35.595Z,50.04
2023-02-26T13:04:44.356Z,49.57
2023-02-26T13:07:33.676Z,48.52
2023-02-26T13:10:14.097Z,49.20
2023-02-26T13:13:00.148Z,49.14
2023-02-26T13:16:04.454Z,51.19
2023-02-26T13:18:47.383Z,49.58
2023-02-26T13:21:24.889Z,51.15
2023-02-26T13:24:01.497Z,52.08
2023-02-26T13:26:34.001Z,52.57
2023-02-26T13:29:17.880Z,52.24
2023-02-26T13:31:55.083Z,51.03
2023-02-26T13:34:43.619Z,50.14
2023-02-26T13:37:26.867Z,50.88
2023-02-26T13:40:17.729Z,49.91
2023-02-26T13:42:55.386Z,49.59
2023-02-26T13:45:47.713Z,48.21
2023-02-26T13:48:31.636Z,48.62
2023-02-26T13:51:09.201Z,46.92
2023-02-26T13:54:00.883Z,46.74
2023-02-26T13:56:56.543Z,46.54
2023-02-26T13:59:38.697Z,44.96
2023-02-26T14:02:47.339Z,43.99
2023-02-26T14:06:00.001Z,46.06
2023-02-26T14:08:55.636Z,45.96
2023-02-26T14:12:02.452Z,47.62
2023-02-26T14:14:42.743Z,46.05
2023-02-26T14:17:34.115Z,46.74
2023-02-26T14:20:28.456Z,46.57
2023-02-26T14:23:35.262Z,46.18
2023-02-26T14:26:24.375Z,45.66
2023-02-26T14:29:10.148Z,46.43
2023-02-26T14:32:07.257Z,46.56
2023-02-26T14:34:51.738Z,46.92
2023-02-26T14:37:29.587Z,47.07
2023-02-26T14:40:09.507Z,46.79
2023-02-26T14:42:48.691Z,46.79
2023-02-26T14:45:32.765Z,48.20
2023-02-26T14:48:07.875Z,47.40
2023-02-26T14:50:53.548Z,46.54
2023-02-26T14:54:02.235Z,46.84
2023-02-26T14:56:45.711Z,46.70
2023-02-26T14:59:44.856Z,47.45
2023-02-26T15:02:28.455Z,48.22
2023-02-26T15:05:27.555Z,48.75
2023-02-26T15:08:29.337Z,48.82
2023-02-26T15:11:20.833Z,48.47
2023-02-26T15:14:13.311Z,49.49
2023-02-26T15:16:59.381Z,48.80
2023-02-26T15:19:49.353Z,48.84
2023-02-26T15:22:36.475Z,48.22
2023-02-26T15:25:15.314Z,47.46
2023-02-26T15:27:51.134Z,47.14
2023-02-26T15:30:23.835Z,46.51
2023-02-26T15:33:01.455Z,45.51
2023-02-26T15:35:35.381Z,45.81
2023-02-26T15:38:08.232Z,46.06
2023-02-26T15:40:41.393Z,46.28
2023-02-26T15:43:20.237Z,46.12
2023-02-26T15:45:55.568Z,46.25
2023-02-26T15:48:32.861Z,46.91
2023-02-26T15:51:07.939Z,46.82
2023-02-26T15:53:45.246Z,46.93
2023-02-26T15:56:22.628Z,46.54
2023-02-26T15:59:00.141Z,47.89
2023-02-26T16:01:33.995Z,48.37
2023-02-26T16:04:09.162Z,48.63
2023-02-26T16:06:44.165Z,49.22
2023-02-26T16:09:21.829Z,48.28
2023-02-26T16:11:53.725Z,48.42
2023-02-26T16:14:32.760Z,50.69
2023-02-26T16:17:05.322Z,50.37
2023-02-26T16:19:42.004Z,50.63
2023-02-26T16:22:24.660Z,50.77
2023-02-26T16:25:02.247Z,51.05
2023-02-26T16:27:37.047Z,51.58
2023-02-26T16:30:23.844Z,52.17
2023-02-26T16:32:57.774Z,52.37
2023-02-26T16:35:36.859Z,52.55
2023-02-26T16:38:29.656Z,52.05
2023-02-26T16:41:05.417Z,52.61
2023-02-26T16:43:52.727Z,53.35
2023-02-26T16:46:37.638Z,53.35
2023-02-26T16:49:14.784Z,53.98
2023-02-26T16:51:48.745Z,53.71
2023-02-26T16:54:26.144Z,54.56
2023-02-26T16:57:02.823Z,55.13
2023-02-26T16:59:38.856Z,55.43
2023-02-26T17:02:20.044Z,54.99
2023-02-26T17:04:56.688Z,55.50
2023-02-26T17:07:33.032Z,55.99
2023-02-26T17:10:22.665Z,56.68
2023-02-26T17:13:05.284Z,57.03
2023-02-26T17:15:41.287Z,56.81
2023-02-26T17:18:16.226Z,57.61
2023-02-26T17:20:48.846Z,57.32
2023-02-26T17:23:22.901Z,57.27
2023-02-26T17:25:57.706Z,57.00
2023-02-26T17:28:32.062Z,56.90
2023-02-26T17:31:04.020Z,56.88
2023-02-26T17:33:40.359Z,56.95
2023-02-26T17:36:19.000Z,57.10
2023-02-26T17:38:51.439Z,57.27
2023-02-26T17:41:23.938Z,56.86
2023-02-26T17:43:56.707Z,57.88
2023-02-26T17:46:28.514Z,58.55
2023-02-26T17:49:03.942Z,58.64
2023-02-26T17:51:35.924Z,58.54
2023-02-26T17:54:08.644Z,58.64
2023-02-26T17:56:42.586Z,58.22
2023-02-26T17:59:14.909Z,58.83
2023-02-26T18:01:47.188Z,59.63
2023-02-26T18:04:23.061Z,60.00
2023-02-26T18:06:55.211Z,59.38
2023-02-26T18:09:28.813Z,59.69
2023-02-26T18:12:01.490Z,60.89
2023-02-26T18:14:33.720Z,61.94
2023-02-26T18:17:05.637Z,61.19
2023-02-26T18:19:40.896Z,60.46
2023-02-26T18:22:16.333Z,60.82
2023-02-26T18:24:48.802Z,61.32
2023-02-26T18:27:23.207Z,61.12
2023-02-26T18:29:56.046Z,61.22
2023-02-26T18:32:28.704Z,60.87
2023-02-26T18:35:05.141Z,61.15
2023-02-26T18:37:37.121Z,61.36
2023-02-26T18:40:11.498Z,61.42
2023-02-26T18:42:43.098Z,62.15
2023-02-26T18:45:15.636Z,62.71
2023-02-26T18:47:48.072Z,62.32
2023-02-26T18:50:23.208Z,62.37
2023-02-26T18:52:55.090Z,62.50
2023-02-26T18:55:27.579Z,63.84
2023-02-26T18:57:59.486Z,63.95
2023-02-26T19:00:32.445Z,63.34
2023-02-26T19:03:04.469Z,64.17
2023-02-26T19:05:40.561Z,63.64
2023-02-26T19:08:13.250Z,64.32
2023-02-26T19:10:45.890Z,64.13
2023-02-26T19:13:17.848Z,63.79
2023-02-26T19:15:51.728Z,63.83
2023-02-26T19:18:23.713Z,64.12
2023-02-26T19:20:58.595Z,64.62
2023-02-26T19:23:32.114Z,63.75
2023-02-26T19:26:05.814Z,64.09
2023-02-26T19:28:37.873Z,63.85
2023-02-26T19:31:10.871Z,64.07
2023-02-26T19:33:42.843Z,63.87
2023-02-26T19:36:17.835Z,63.88
2023-02-26T19:38:49.970Z,64.18
2023-02-26T19:41:22.593Z,65.69
2023-02-26T19:43:54.856Z,64.69
2023-02-26T19:46:27.612Z,64.94
2023-02-26T19:48:59.481Z,64.77
2023-02-26T19:51:34.448Z,64.96
2023-02-26T19:54:06.455Z,65.40
2023-02-26T19:56:38.431Z,64.89
2023-02-26T19:59:10.730Z,64.69
2023-02-26T20:01:44.363Z,65.02
2023-02-26T20:04:16.569Z,64.99
2023-02-26T20:06:51.735Z,65.40
2023-02-26T20:09:24.435Z,65.37
2023-02-26T20:11:56.900Z,66.07
2023-02-26T20:14:29.161Z,66.40
2023-02-26T20:17:01.733Z,65.98
2023-02-26T20:19:33.991Z,65.83
2023-02-26T20:22:09.199Z,66.31
2023-02-26T20:24:41.649Z,65.30
2023-02-26T20:27:14.003Z,65.48
2023-02-26T20:29:46.436Z,65.70
2023-02-26T20:32:19.227Z,65.49
2023-02-26T20:34:52.436Z,67.23
2023-02-26T20:37:27.569Z,66.54
2023-02-26T20:39:59.532Z,66.61
2023-02-26T20:42:31.843Z,66.60
2023-02-26T20:45:03.784Z,67.57
2023-02-26T20:47:35.980Z,68.29
2023-02-26T20:50:20.824Z,67.87
2023-02-26T20:52:55.982Z,68.38
2023-02-26T20:55:27.843Z,68.36
2023-02-26T20:58:00.202Z,68.96
2023-02-26T21:00:32.204Z,69.92
2023-02-26T21:03:04.624Z,70.43
2023-02-26T21:05:36.602Z,70.48
2023-02-26T21:08:11.808Z,69.26
2023-02-26T21:10:44.213Z,70.10
2023-02-26T21:13:16.472Z,68.82
2023-02-26T21:15:48.448Z,68.74
2023-02-26T21:18:20.805Z,68.81
2023-02-26T21:20:53.046Z,69.17
2023-02-26T21:23:28.096Z,68.11
2023-02-26T21:26:00.283Z,67.84
2023-02-26T21:28:32.591Z,68.20
2023-02-26T21:31:05.132Z,68.83
2023-02-26T21:33:37.371Z,68.43
2023-02-26T21:36:10.388Z,68.95
2023-02-26T21:38:45.387Z,69.66
2023-02-26T21:41:17.123Z,69.18
2023-02-26T21:43:50.052Z,69.30
2023-02-26T21:46:23.203Z,68.50
2023-02-26T21:48:55.389Z,67.91
2023-02-26T21:51:27.516Z,67.95
2023-02-26T21:54:02.562Z,68.31
2023-02-26T21:56:34.369Z,68.83
2023-02-26T21:59:06.843Z,68.27
2023-02-26T22:01:38.883Z,68.20
2023-02-26T22:04:11.324Z,68.28
2023-02-26T22:06:43.089Z,68.05
2023-02-26T22:09:19.611Z,68.33
2023-02-26T22:11:51.985Z,67.97
2023-02-26T22:14:24.141Z,69.19
2023-02-26T22:16:56.307Z,70.90
2023-02-26T22:19:28.660Z,69.88
2023-02-26T22:22:00.701Z,69.64
2023-02-26T22:24:37.428Z,70.47
2023-02-26T22:27:09.181Z,71.28
2023-02-26T22:29:41.800Z,71.92
2023-02-26T22:32:13.727Z,72.27
2023-02-26T22:34:46.321Z,72.94
2023-02-26T22:37:18.604Z,72.98
2023-02-26T22:39:54.109Z,73.56
2023-02-26T22:42:26.656Z,72.81
2023-02-26T22:44:59.326Z,73.68
2023-02-26T22:47:31.465Z,73.21
2023-02-26T22:50:04.334Z,73.74
2023-02-26T22:52:36.588Z,74.10
2023-02-26T22:55:13.773Z,73.54
2023-02-26T22:57:46.376Z,74.23
2023-02-26T23:00:21.690Z,74.49
2023-02-26T23:02:54.073Z,73.92
2023-02-26T23:05:26.609Z,74.78
2023-02-26T23:07:58.891Z,75.63
2023-02-26T23:10:34.505Z,75.22
2023-02-26T23:13:06.778Z,75.48
2023-02-26T23:15:39.817Z,76.69
2023-02-26T23:18:11.911Z,75.59
2023-02-26T23:20:44.758Z,74.93
2023-02-26T23:23:17.419Z,75.08
2023-02-26T23:25:53.432Z,76.46
2023-02-26T23:28:26.290Z,75.38
2023-02-26T23:30:59.772Z,78.02
2023-02-26T23:33:32.010Z,75.99
2023-02-26T23:36:04.596Z,75.59
2023-02-26T23:38:36.990Z,75.68
2023-02-26T23:41:12.305Z,77.51
2023-02-26T23:43:44.566Z,78.36
2023-02-26T23:46:17.398Z,76.70
2023-02-26T23:48:49.666Z,76.51
2023-02-26T23:51:22.302Z,78.45
2023-02-26T23:53:54.703Z,77.75
2023-02-26T23:56:30.085Z,77.30
2023-02-26T23:59:02.385Z,77.72
